Time;durP1;ratioP1;P1;durP2;ratioP2;P2;SDS_P1;SDS_P2;PMS_P1;PMS_P2;Temp;Humidity;BMP_temperature;BMP_pressure;BME280_temperature;BME280_humidity;BME280_pressure;Samples;Min_cycle;Max_cycle;Signal;HPM_P1;HPM_P2
2022/10/05 00:01:46;;;;;;;4.90;1.90;;;15.60;99.90;;;;;;1933643;72;22233;-81
2022/10/05 00:04:37;;;;;;;4.28;2.40;;;15.50;99.90;;;;;;1896875;75;21070;-81
2022/10/05 00:07:31;;;;;;;2.67;1.77;;;15.50;99.90;;;;;;1910877;75;21043;-81
2022/10/05 00:10:23;;;;;;;3.12;1.82;;;15.40;99.90;;;;;;1908107;75;21067;-81
2022/10/05 00:13:18;;;;;;;3.20;2.10;;;15.40;99.90;;;;;;1907173;75;21145;-81
2022/10/05 00:16:14;;;;;;;4.05;2.08;;;15.40;99.90;;;;;;1888676;75;21165;-83
2022/10/05 00:21:46;;;;;;;4.35;2.20;;;15.40;99.90;;;;;;1965592;72;22280;-81
2022/10/05 00:24:38;;;;;;;4.78;2.30;;;15.40;99.90;;;;;;1908299;74;21098;-81
2022/10/05 00:30:23;;;;;;;4.33;2.50;;;15.40;99.90;;;;;;1944231;72;22636;-81
2022/10/05 00:33:14;;;;;;;4.25;2.67;;;15.40;99.90;;;;;;1886471;75;21126;-81
2022/10/05 00:36:07;;;;;;;5.70;2.70;;;15.40;99.90;;;;;;1888398;75;21042;-81
2022/10/05 00:39:04;;;;;;;3.75;2.27;;;15.40;99.90;;;;;;1900990;75;21114;-81
2022/10/05 00:42:03;;;;;;;3.45;2.12;;;15.30;99.90;;;;;;1885782;75;21127;-82
2022/10/05 00:44:57;;;;;;;4.47;2.20;;;15.30;99.90;;;;;;1886505;75;21136;-82
2022/10/05 00:47:53;;;;;;;4.70;2.27;;;15.30;99.90;;;;;;1903945;75;21116;-82
2022/10/05 00:51:08;;;;;;;4.15;2.40;;;15.30;99.90;;;;;;1888851;75;21066;-82
2022/10/05 00:54:08;;;;;;;5.17;2.55;;;15.30;99.90;;;;;;1884723;75;21075;-82
2022/10/05 00:57:12;;;;;;;2.72;1.90;;;15.30;99.90;;;;;;1887861;75;21585;-81
2022/10/05 01:00:08;;;;;;;3.98;2.27;;;15.20;99.90;;;;;;1896435;75;21105;-81
2022/10/05 01:03:03;;;;;;;3.45;2.15;;;15.20;99.90;;;;;;1897421;75;21150;-81
2022/10/05 01:06:01;;;;;;;4.58;1.92;;;15.20;99.90;;;;;;1896708;75;21212;-81
2022/10/05 01:08:56;;;;;;;3.45;2.20;;;15.10;99.90;;;;;;1903155;75;21132;-81
2022/10/05 01:11:51;;;;;;;4.97;2.00;;;15.10;99.90;;;;;;1886417;75;21059;-81
2022/10/05 01:14:48;;;;;;;2.72;1.90;;;15.10;99.90;;;;;;1900625;75;21051;-81
2022/10/05 01:17:44;;;;;;;4.90;1.65;;;15.10;99.90;;;;;;1889984;75;21119;-81
2022/10/05 01:20:43;;;;;;;6.12;2.35;;;15.10;99.90;;;;;;1912503;75;21094;-81
2022/10/05 01:23:43;;;;;;;;;;;15.00;99.90;;;;;;1887120;75;21631;-81
2022/10/05 01:27:37;;;;;;;4.12;1.85;;;15.00;99.90;;;;;;1906631;75;20205;-82
2022/10/05 01:33:14;;;;;;;3.27;2.08;;;15.00;99.90;;;;;;1953525;72;22164;-81
2022/10/05 01:36:08;;;;;;;3.35;1.72;;;15.00;99.90;;;;;;1897389;73;21092;-81
2022/10/05 01:39:03;;;;;;;3.25;2.10;;;15.00;99.90;;;;;;1910995;74;21120;-81
2022/10/05 01:47:22;;;;;;;4.10;2.02;;;14.80;99.90;;;;;;1932803;72;22213;-83
2022/10/05 01:50:20;;;;;;;5.10;2.30;;;14.70;99.90;;;;;;1906414;75;21129;-82
2022/10/05 01:53:14;;;;;;;3.85;2.10;;;14.70;99.90;;;;;;1908609;75;21591;-81
2022/10/05 01:58:55;;;;;;;3.52;2.10;;;14.70;99.90;;;;;;1941754;72;22691;-81
2022/10/05 02:01:50;;;;;;;7.33;2.35;;;14.70;99.90;;;;;;1889053;75;21124;-83
2022/10/05 02:07:27;;;;;;;4.60;2.00;;;14.70;99.90;;;;;;1934566;72;22331;-81
2022/10/05 02:10:24;;;;;;;7.12;2.08;;;14.60;99.90;;;;;;1894573;75;21055;-81
2022/10/05 02:13:18;;;;;;;3.92;1.80;;;14.50;99.90;;;;;;1883115;75;21099;-83
2022/10/05 02:16:13;;;;;;;7.62;2.10;;;14.50;99.90;;;;;;1881572;75;21086;-81
2022/10/05 02:19:08;;;;;;;4.45;2.02;;;14.50;99.90;;;;;;1878165;75;21160;-81
2022/10/05 02:22:04;;;;;;;4.00;2.12;;;14.50;99.90;;;;;;1866638;76;21137;-81
2022/10/05 02:24:59;;;;;;;4.28;1.90;;;14.50;99.90;;;;;;1894896;75;21059;-81
2022/10/05 02:27:54;;;;;;;2.85;2.00;;;14.50;99.90;;;;;;1877101;75;21507;-81
2022/10/05 02:30:49;;;;;;;4.37;2.00;;;14.50;99.90;;;;;;1876019;75;21129;-81
2022/10/05 02:33:41;;;;;;;4.70;2.05;;;14.50;99.90;;;;;;1873026;75;21101;-81
2022/10/05 02:36:36;;;;;;;3.90;2.35;;;14.50;99.90;;;;;;1884832;75;21224;-83
2022/10/05 02:42:13;;;;;;;8.55;2.17;;;14.50;99.90;;;;;;1952018;72;22148;-81
2022/10/05 02:45:10;;;;;;;3.17;2.00;;;14.50;99.90;;;;;;1922679;73;21062;-81
2022/10/05 02:48:06;;;;;;;3.75;1.98;;;14.40;99.90;;;;;;1926922;73;21623;-81
2022/10/05 02:51:01;;;;;;;3.83;2.10;;;14.30;99.90;;;;;;1948783;73;21155;-82
2022/10/05 02:54:01;;;;;;;3.33;2.00;;;14.30;99.90;;;;;;1917629;75;21094;-83
2022/10/05 02:56:56;;;;;;;2.72;1.80;;;14.30;99.90;;;;;;1934982;73;21153;-82
2022/10/05 02:59:51;;;;;;;3.83;1.90;;;14.30;99.90;;;;;;1934292;73;21160;-82
2022/10/05 03:02:46;;;;;;;7.42;2.40;;;14.30;99.90;;;;;;1917624;75;21175;-82
2022/10/05 03:05:40;;;;;;;2.87;1.75;;;14.30;99.90;;;;;;1930964;73;21128;-82
2022/10/05 03:14:06;;;;;;;3.45;1.90;;;14.30;99.90;;;;;;1947493;72;22269;-83
2022/10/05 03:17:06;;;;;;;2.55;1.87;;;14.30;99.90;;;;;;1897050;75;21123;-83
2022/10/05 03:20:05;;;;;;;4.97;1.95;;;14.30;99.90;;;;;;1899689;75;21047;-81
2022/10/05 03:26:04;;;;;;;5.22;2.00;;;14.30;99.90;;;;;;1929179;72;22723;-83
2022/10/05 03:29:00;;;;;;;8.15;2.40;;;14.30;99.90;;;;;;1887228;75;21210;-83
2022/10/05 03:31:55;;;;;;;5.45;1.90;;;14.30;99.90;;;;;;1892108;75;21044;-82
2022/10/05 03:37:32;;;;;;;4.55;1.72;;;14.30;99.90;;;;;;1933742;72;22138;-81
2022/10/05 03:40:28;;;;;;;3.05;1.82;;;14.30;99.90;;;;;;1898286;74;21114;-81
2022/10/05 03:46:17;;;;;;;4.47;2.12;;;14.20;99.90;;;;;;1928343;72;22150;-83
2022/10/05 03:49:13;;;;;;;6.08;2.02;;;14.10;99.90;;;;;;1892112;75;21055;-82
2022/10/05 03:52:08;;;;;;;5.12;2.20;;;14.10;99.90;;;;;;1892441;75;21181;-81
2022/10/05 03:55:03;;;;;;;4.47;2.22;;;14.00;99.90;;;;;;1893349;75;21129;-81
2022/10/05 03:57:58;;;;;;;4.10;2.27;;;14.00;99.90;;;;;;1890510;75;21200;-81
2022/10/05 04:00:52;;;;;;;5.42;2.10;;;13.90;99.90;;;;;;1884684;75;21059;-81
2022/10/05 04:06:26;;;;;;;2.80;1.90;;;13.90;99.90;;;;;;1928386;72;22182;-81
2022/10/05 04:12:03;;;;;;;3.67;1.75;;;13.90;99.90;;;;;;1943682;72;22345;-81
2022/10/05 04:17:51;;;;;;;4.67;2.12;;;13.80;99.90;;;;;;1935527;72;22138;-83
2022/10/05 04:20:46;;;;;;;4.25;1.75;;;13.90;99.90;;;;;;1894256;75;21047;-82
2022/10/05 04:26:22;;;;;;;5.83;2.33;;;13.90;99.90;;;;;;1946201;72;22221;-83
2022/10/05 04:29:18;;;;;;;3.55;1.90;;;13.90;99.90;;;;;;1895555;75;21050;-82
2022/10/05 04:32:25;;;;;;;4.47;2.42;;;13.90;99.90;;;;;;1910124;73;21067;-82
2022/10/05 04:38:06;;;;;;;3.47;2.17;;;13.80;99.90;;;;;;1923898;72;22628;-81
2022/10/05 04:52:45;;;;;;;6.60;4.40;;;13.80;99.90;;;;;;1913503;72;28027;-83
2022/10/05 04:55:41;;;;;;;3.90;2.17;;;13.90;99.90;;;;;;1899225;75;21071;-83
2022/10/05 05:01:38;;;;;;;2.98;1.98;;;13.70;99.90;;;;;;1944841;72;22190;-83
2022/10/05 05:07:19;;;;;;;5.22;2.25;;;13.50;99.90;;;;;;1958956;72;22354;-83
2022/10/05 05:10:38;;;;;;;4.70;2.00;;;13.60;99.90;;;;;;1911970;73;21047;-82
2022/10/05 05:13:53;;;;;;;4.28;2.10;;;13.50;99.90;;;;;;1900096;73;21522;-82
2022/10/05 05:16:46;;;;;;;3.50;2.33;;;13.50;99.90;;;;;;1915488;73;21098;-81
2022/10/05 05:19:47;;;;;;;6.85;2.37;;;13.50;99.90;;;;;;1928012;73;21100;-82
2022/10/05 05:22:42;;;;;;;5.65;2.42;;;13.50;99.90;;;;;;1895689;73;21055;-82
2022/10/05 05:25:39;;;;;;;2.85;2.33;;;13.50;99.90;;;;;;1917631;73;21187;-81
2022/10/05 05:31:14;;;;;;;9.00;2.83;;;13.50;99.90;;;;;;1929178;72;22347;-83
2022/10/05 05:34:09;;;;;;;6.22;2.72;;;13.50;99.90;;;;;;1906316;75;21127;-82
2022/10/05 05:37:04;;;;;;;6.08;2.75;;;13.50;99.90;;;;;;1914429;75;21084;-82
2022/10/05 05:40:00;;;;;;;4.03;2.42;;;13.50;99.90;;;;;;1903331;75;21178;-83
2022/10/05 05:42:57;;;;;;;4.92;2.50;;;13.50;99.90;;;;;;1917238;75;21031;-83
2022/10/05 05:45:51;;;;;;;4.90;2.33;;;13.40;99.90;;;;;;1904515;75;21127;-83
2022/10/05 05:51:24;;;;;;;5.30;2.77;;;13.40;99.90;;;;;;1932792;72;22232;-85
2022/10/05 05:54:25;;;;;;;5.85;3.27;;;13.30;99.90;;;;;;1912678;74;21047;-83
2022/10/05 05:57:20;;;;;;;7.20;2.87;;;13.30;99.90;;;;;;1910802;75;21109;-83
2022/10/05 06:00:18;;;;;;;4.30;2.80;;;13.20;99.90;;;;;;1914355;75;21139;-83
2022/10/05 06:03:15;;;;;;;4.62;2.33;;;13.30;99.90;;;;;;1893852;74;21229;-82
2022/10/05 06:06:10;;;;;;;10.35;2.60;;;13.20;99.90;;;;;;1912587;75;21152;-82
2022/10/05 06:11:49;;;;;;;6.42;2.60;;;13.20;99.90;;;;;;1934699;72;22164;-84
2022/10/05 06:14:49;;;;;;;4.75;2.67;;;13.20;99.90;;;;;;1882343;75;21650;-84
2022/10/05 06:17:44;;;;;;;9.83;2.70;;;13.30;99.90;;;;;;1892507;75;21080;-82
2022/10/05 06:23:23;;;;;;;5.65;3.00;;;13.30;99.90;;;;;;1929006;72;22579;-84
2022/10/05 06:26:25;;;;;;;6.50;2.90;;;13.30;99.90;;;;;;1908851;73;21147;-84
2022/10/05 06:29:20;;;;;;;4.12;2.80;;;13.30;99.90;;;;;;1886801;75;21094;-82
2022/10/05 06:32:14;;;;;;;6.10;3.20;;;13.40;99.90;;;;;;1876329;75;21136;-82
2022/10/05 06:35:13;;;;;;;12.15;3.42;;;13.40;99.90;;;;;;1893436;75;21111;-83
2022/10/05 06:41:05;;;;;;;5.35;3.00;;;13.50;99.90;;;;;;1935839;72;22162;-84
2022/10/05 06:44:02;;;;;;;6.53;2.92;;;13.60;99.90;;;;;;1895882;74;21526;-83
2022/10/05 06:47:12;;;;;;;3.85;2.58;;;13.60;99.90;;;;;;1865653;75;21122;-85
2022/10/05 06:53:27;;;;;;;6.72;3.00;;;13.70;99.90;;;;;;1951406;72;22205;-84
2022/10/05 06:56:22;;;;;;;4.83;2.77;;;13.70;99.90;;;;;;1902667;75;21168;-83
2022/10/05 06:59:17;;;;;;;5.83;2.80;;;13.80;99.90;;;;;;1893116;75;21147;-83
2022/10/05 07:02:13;;;;;;;7.95;2.95;;;13.80;99.90;;;;;;1887310;75;21108;-83
2022/10/05 07:05:43;;;;;;;5.85;2.92;;;13.90;99.90;;;;;;1905281;75;21609;-83
2022/10/05 07:11:26;;;;;;;9.08;2.98;;;14.00;99.90;;;;;;1935223;72;22154;-82
2022/10/05 07:17:15;;;;;;;3.92;2.77;;;14.10;99.90;;;;;;1933713;72;22177;-84
2022/10/05 07:20:15;;;;;;;8.45;3.12;;;14.20;99.90;;;;;;1911057;75;21120;-84
2022/10/05 07:23:22;;;;;;;6.05;2.83;;;14.20;99.90;;;;;;1899996;73;21095;-84
2022/10/05 07:26:18;;;;;;;7.90;3.20;;;14.30;99.90;;;;;;1891131;75;21079;-84
2022/10/05 07:32:14;;;;;;;4.70;3.25;;;14.30;99.90;;;;;;1948393;72;22273;-84
2022/10/05 07:38:06;;;;;;;7.58;2.90;;;14.40;99.90;;;;;;1942896;72;22162;-84
2022/10/05 07:46:29;;;;;;;3.62;2.55;;;14.70;99.90;;;;;;1929017;72;22169;-84
2022/10/05 07:49:28;;;;;;;3.70;2.60;;;14.70;99.90;;;;;;1881559;75;21098;-83
2022/10/05 07:52:23;;;;;;;11.65;3.45;;;14.80;99.90;;;;;;1886242;75;21179;-83
2022/10/05 07:55:19;;;;;;;4.60;2.45;;;14.90;99.90;;;;;;1896679;75;21075;-83
2022/10/05 07:58:15;;;;;;;4.42;2.35;;;14.90;99.90;;;;;;1890114;75;21224;-83
2022/10/05 08:01:13;;;;;;;5.62;2.30;;;15.00;99.90;;;;;;1913854;75;21127;-83
2022/10/05 08:04:10;;;;;;;6.28;2.30;;;15.00;99.90;;;;;;1904998;74;21055;-83
2022/10/05 08:07:05;;;;;;;6.80;2.52;;;15.10;99.90;;;;;;1883812;75;21094;-84
2022/10/05 08:12:52;;;;;;;5.58;2.70;;;15.20;99.90;;;;;;1964421;72;22264;-84
2022/10/05 08:15:47;;;;;;;5.08;2.58;;;15.30;99.90;;;;;;1931626;73;21082;-84
2022/10/05 08:18:48;;;;;;;4.90;2.55;;;15.40;99.90;;;;;;1916815;74;21066;-84
2022/10/05 08:21:42;;;;;;;3.95;2.67;;;15.50;99.90;;;;;;1918737;73;21118;-83
2022/10/05 08:27:24;;;;;;;5.37;2.33;;;15.60;99.90;;;;;;1936237;72;22276;-83
2022/10/05 08:30:17;;;;;;;4.28;2.40;;;15.70;99.90;;;;;;1899910;73;21865;-85
2022/10/05 08:36:04;;;;;;;4.15;2.70;;;15.80;99.90;;;;;;1919821;72;22314;-83
2022/10/05 08:38:58;;;;;;;6.17;2.80;;;15.90;99.90;;;;;;1901541;75;21122;-83
2022/10/05 08:42:16;;;;;;;4.60;2.77;;;15.90;99.90;;;;;;1899983;75;21110;-83
2022/10/05 08:48:38;;;;;;;3.65;3.08;;;16.10;99.90;;;;;;1960949;72;22214;-85
2022/10/05 08:51:39;;;;;;;6.97;2.72;;;16.20;99.90;;;;;;1919561;73;21127;-83
2022/10/05 08:57:26;;;;;;;3.77;2.30;;;16.40;99.90;;;;;;1934490;72;22177;-85
2022/10/05 09:00:20;;;;;;;5.58;2.08;;;16.40;99.90;;;;;;1902147;75;21122;-83
2022/10/05 09:03:21;;;;;;;3.90;2.15;;;16.50;99.90;;;;;;1895006;75;21668;-83
2022/10/05 09:06:50;;;;;;;3.30;2.20;;;16.50;99.90;;;;;;1887006;75;21103;-83
2022/10/05 09:10:21;;;;;;;5.05;2.08;;;16.60;99.90;;;;;;1887000;75;21109;-83
2022/10/05 09:14:11;;;;;;;5.75;1.90;;;16.80;99.90;;;;;;1901681;73;21168;-83
2022/10/05 09:20:13;;;;;;;3.27;1.90;;;16.90;99.90;;;;;;1926561;72;28023;-85
2022/10/05 09:23:09;;;;;;;;;;;17.10;99.90;;;;;;1900943;75;21212;-83
2022/10/05 09:26:03;;;;;;;2.83;1.40;;;17.10;99.90;;;;;;1892134;75;20194;-84
2022/10/05 09:31:44;;;;;;;3.00;1.57;;;17.30;99.90;;;;;;1930704;72;22260;-86
2022/10/05 09:37:55;;;;;;;2.58;1.40;;;17.40;99.90;;;;;;1949431;72;22149;-83
2022/10/05 09:41:24;;;;;;;4.47;1.75;;;17.40;99.90;;;;;;1897513;75;21664;-83
2022/10/05 09:47:33;;;;;;;5.03;1.65;;;17.40;99.90;;;;;;1945958;72;22132;-81
2022/10/05 09:50:49;;;;;;;4.10;1.90;;;17.40;99.90;;;;;;1901807;75;21058;-82
2022/10/05 09:57:21;;;;;;;5.42;2.02;;;17.50;99.90;;;;;;1941183;72;22113;-84
2022/10/05 10:00:26;;;;;;;6.75;1.77;;;17.60;99.90;;;;;;1910196;74;21186;-83
2022/10/05 10:04:06;;;;;;;3.87;1.70;;;17.60;99.90;;;;;;1918283;74;21575;-82
2022/10/05 10:07:49;;;;;;;7.30;1.90;;;17.80;99.90;;;;;;1909166;74;21039;-82
2022/10/05 10:17:46;;;;;;;4.10;2.35;;;17.90;99.90;;;;;;1943505;72;22164;-82
2022/10/05 10:23:49;;;;;;;4.45;2.80;;;18.00;99.90;;;;;;1931312;72;22114;-83
2022/10/05 10:29:59;;;;;;;3.00;2.00;;;18.30;99.90;;;;;;1932681;72;22234;-81
2022/10/05 10:33:30;;;;;;;3.87;2.33;;;18.30;99.90;;;;;;1894526;75;21148;-83
2022/10/05 10:39:16;;;;;;;2.98;2.08;;;18.60;99.90;;;;;;1962287;72;22166;-81
2022/10/05 10:42:27;;;;;;;4.75;2.05;;;18.60;99.90;;;;;;1929048;73;21066;-84
2022/10/05 10:45:32;;;;;;;4.60;1.82;;;18.80;99.90;;;;;;1915641;74;21218;-84
2022/10/05 10:52:22;;;;;;;5.03;2.17;;;18.90;99.90;;;;;;1992627;69;22210;-83
2022/10/05 11:01:51;;;;;;;5.20;3.10;;;19.20;99.90;;;;;;1935346;72;22195;-84
2022/10/05 11:08:27;;;;;;;5.45;3.10;;;19.20;99.90;;;;;;1953685;72;22716;-83
2022/10/05 11:11:41;;;;;;;4.55;3.10;;;19.20;99.90;;;;;;1926633;73;21105;-82
2022/10/05 11:14:55;;;;;;;6.20;3.30;;;19.30;99.90;;;;;;1924925;73;21060;-82
2022/10/05 11:18:00;;;;;;;4.83;2.67;;;19.30;99.90;;;;;;1945790;73;21094;-82
2022/10/05 11:21:19;;;;;;;5.05;2.85;;;19.40;99.90;;;;;;1923301;73;21122;-82
2022/10/05 11:28:24;;;;;;;8.73;3.58;;;19.50;99.90;;;;;;1946577;72;22554;-82
2022/10/05 11:35:26;;;;;;;8.70;3.90;;;19.80;99.90;;;;;;1956878;72;22163;-82
2022/10/05 11:38:45;;;;;;;6.70;3.95;;;19.70;99.90;;;;;;1923415;73;21063;-82
2022/10/05 11:42:08;;;;;;;4.35;3.10;;;19.70;99.90;;;;;;1913776;75;21054;-82
2022/10/05 11:48:26;;;;;;;8.60;4.50;;;19.80;99.90;;;;;;1953483;72;22186;-82
2022/10/05 11:54:36;;;;;;;6.35;3.83;;;20.00;99.90;;;;;;1928192;72;22164;-84
2022/10/05 11:57:36;;;;;;;9.43;4.55;;;19.90;99.90;;;;;;1906030;75;21078;-83
2022/10/05 12:00:33;;;;;;;10.23;5.28;;;20.00;99.90;;;;;;1903307;75;21099;-84
2022/10/05 12:03:34;;;;;;;5.37;4.28;;;20.10;99.90;;;;;;1884870;75;21054;-84
2022/10/05 12:06:38;;;;;;;14.28;4.60;;;20.20;99.90;;;;;;1896478;75;21133;-82
2022/10/05 12:10:12;;;;;;;7.75;4.22;;;20.30;99.90;;;;;;1891547;75;21085;-82
2022/10/05 12:12:36;;;;;;;8.28;4.80;;;20.30;99.90;;;;;;1897701;75;21058;-82
2022/10/05 12:18:20;;;;;;;6.28;4.40;;;20.20;99.90;;;;;;1947519;72;22267;-82
2022/10/05 12:21:17;;;;;;;9.83;4.67;;;20.20;99.90;;;;;;1920988;73;21051;-83
2022/10/05 12:26:51;;;;;;;7.45;4.28;;;20.40;99.90;;;;;;1944159;72;22223;-83
2022/10/05 12:32:25;;;;;;;8.50;4.42;;;20.40;99.90;;;;;;1960403;72;22130;-82
2022/10/05 12:35:21;;;;;;;6.15;4.75;;;20.50;99.90;;;;;;1906818;74;21133;-82
2022/10/05 12:38:18;;;;;;;7.33;5.03;;;20.50;99.90;;;;;;1905019;75;21184;-82
2022/10/05 12:44:08;;;;;;;6.53;4.00;;;20.70;99.90;;;;;;1958094;72;22264;-82
2022/10/05 12:47:02;;;;;;;7.90;4.42;;;20.80;99.90;;;;;;1932655;73;21151;-83
2022/10/05 12:50:03;;;;;;;7.17;4.47;;;20.80;99.90;;;;;;1928550;72;21098;-82
2022/10/05 12:53:04;;;;;;;5.33;3.47;;;20.90;99.90;;;;;;1917498;73;21104;-82
2022/10/05 12:56:00;;;;;;;8.33;4.35;;;20.90;99.90;;;;;;1953246;72;21187;-82
2022/10/05 13:01:45;;;;;;;11.08;4.37;;;20.90;99.90;;;;;;1943629;72;22170;-82
2022/10/05 13:07:44;;;;;;;9.55;5.00;;;21.00;99.90;;;;;;1936342;72;23719;-82
2022/10/05 13:10:39;;;;;;;9.33;4.37;;;21.00;99.90;;;;;;1888247;75;21535;-82
2022/10/05 13:16:34;;;;;;;7.92;4.25;;;21.10;99.90;;;;;;1957934;72;22211;-84
2022/10/05 13:19:38;;;;;;;13.43;4.55;;;21.10;99.90;;;;;;1906570;75;21564;-83
2022/10/05 13:22:41;;;;;;;8.78;4.85;;;21.00;99.90;;;;;;1909251;74;21061;-83
2022/10/05 13:25:37;;;;;;;8.00;3.92;;;21.00;99.90;;;;;;1878074;76;21179;-82
2022/10/05 13:28:32;;;;;;;7.87;4.50;;;21.00;99.90;;;;;;1898142;75;21528;-82
2022/10/05 13:31:26;;;;;;;9.35;4.30;;;21.10;99.90;;;;;;1890509;75;21522;-82
2022/10/05 13:34:27;;;;;;;4.40;3.33;;;21.20;99.90;;;;;;1887120;75;21128;-82
2022/10/05 13:37:22;;;;;;;7.08;4.10;;;21.30;99.90;;;;;;1917741;75;21214;-82
2022/10/05 13:40:20;;;;;;;7.42;4.28;;;21.40;99.90;;;;;;1917624;75;21221;-82
2022/10/05 13:43:16;;;;;;;7.25;4.45;;;21.40;99.90;;;;;;1879188;76;21139;-82
2022/10/05 13:46:12;;;;;;;7.53;4.33;;;21.40;99.90;;;;;;1886460;75;21111;-83
2022/10/05 13:49:10;;;;;;;6.78;4.17;;;21.30;99.90;;;;;;1917468;75;21149;-82
2022/10/05 13:52:07;;;;;;;6.45;4.10;;;21.40;99.90;;;;;;1917562;75;21154;-82
2022/10/05 13:55:03;;;;;;;7.25;3.47;;;21.40;99.90;;;;;;1889554;75;21234;-82
2022/10/05 13:57:58;;;;;;;9.25;4.28;;;21.40;99.90;;;;;;1900992;75;21066;-82
2022/10/05 14:00:53;;;;;;;6.85;4.25;;;21.40;99.90;;;;;;1880277;76;21124;-82
2022/10/05 14:04:04;;;;;;;6.00;3.17;;;21.40;99.90;;;;;;1912516;75;21161;-82
2022/10/05 14:06:56;;;;;;;5.37;3.70;;;21.40;99.90;;;;;;1887744;75;21058;-84
2022/10/05 14:09:50;;;;;;;6.55;3.85;;;21.50;99.90;;;;;;1917625;75;21059;-85
2022/10/05 14:12:44;;;;;;;4.40;3.52;;;22.10;99.90;;;;;;1872514;77;21057;-85
2022/10/05 14:15:36;;;;;;;7.53;3.80;;;23.00;99.90;;;;;;1886663;75;21131;-86
2022/10/05 14:18:31;;;;;;;5.03;3.62;;;23.60;99.90;;;;;;1879731;76;21110;-85
2022/10/05 14:21:24;;;;;;;4.65;3.02;;;23.80;99.90;;;;;;1925068;74;21178;-85
2022/10/05 14:24:24;;;;;;;6.33;3.92;;;24.00;99.90;;;;;;1879624;76;21212;-85
2022/10/05 14:27:26;;;;;;;6.72;4.03;;;24.10;99.90;;;;;;1857917;77;21072;-85
2022/10/05 14:30:24;;;;;;;5.17;3.60;;;24.30;99.90;;;;;;1900123;75;21107;-85
2022/10/05 14:33:17;;;;;;;4.37;3.00;;;24.40;99.90;;;;;;1857772;77;21173;-86
2022/10/05 14:36:15;;;;;;;4.15;3.08;;;24.50;99.90;;;;;;1923818;74;21130;-86
2022/10/05 14:39:12;;;;;;;5.90;4.08;;;23.50;99.90;;;;;;1882670;76;21140;-86
2022/10/05 14:45:13;;;;;;;5.05;3.60;;;22.50;99.90;;;;;;1954775;72;22158;-85
2022/10/05 14:48:11;;;;;;;6.83;3.47;;;22.30;99.90;;;;;;1900988;75;21565;-86
2022/10/05 14:51:02;;;;;;;;;;;22.20;99.90;;;;;;1899163;75;21117;-85
2022/10/05 14:53:59;;;;;;;6.65;3.55;;;22.20;99.90;;;;;;1895366;75;20117;-86
2022/10/05 14:56:56;;;;;;;6.92;3.65;;;22.20;99.90;;;;;;1893529;75;21055;-86
2022/10/05 15:00:11;;;;;;;4.42;3.12;;;22.20;99.90;;;;;;1884789;76;21063;-84
2022/10/05 15:03:30;;;;;;;7.78;3.75;;;22.10;99.90;;;;;;1905205;75;21129;-84
2022/10/05 15:06:26;;;;;;;6.05;4.03;;;22.10;99.90;;;;;;1906189;75;21104;-85
2022/10/05 15:09:36;;;;;;;4.80;2.70;;;22.30;99.90;;;;;;1902082;75;21063;-84
2022/10/05 15:12:33;;;;;;;3.33;2.87;;;22.90;99.90;;;;;;1901513;75;21051;-85
2022/10/05 15:15:31;;;;;;;6.33;3.70;;;24.00;99.90;;;;;;1885132;76;21175;-85
2022/10/05 15:18:38;;;;;;;6.28;3.30;;;24.80;99.90;;;;;;1906979;75;21094;-85
2022/10/05 15:21:41;;;;;;;4.95;3.00;;;25.20;99.90;;;;;;1906873;75;21066;-85
2022/10/05 15:24:36;;;;;;;4.53;3.00;;;25.50;99.90;;;;;;1910874;75;21048;-85
2022/10/05 15:27:33;;;;;;;4.37;2.98;;;25.70;99.90;;;;;;1895513;75;21207;-85
2022/10/05 15:30:24;;;;;;;5.55;3.00;;;25.70;99.90;;;;;;1884546;75;21057;-85
2022/10/05 15:33:20;;;;;;;5.55;3.08;;;25.80;99.90;;;;;;1897722;75;21109;-85
2022/10/05 15:39:01;;;;;;;4.83;3.27;;;25.70;99.90;;;;;;1951394;72;22220;-85
2022/10/05 15:42:00;;;;;;;5.75;3.25;;;26.20;99.90;;;;;;1917729;75;21184;-86
2022/10/05 15:45:00;;;;;;;4.55;3.50;;;26.30;99.90;;;;;;1917863;75;21149;-86
2022/10/05 15:47:56;;;;;;;3.50;3.08;;;26.10;99.90;;;;;;1917988;75;21043;-85
2022/10/05 15:50:55;;;;;;;4.67;3.10;;;26.30;99.90;;;;;;1940347;73;21059;-85
2022/10/05 15:53:48;;;;;;;7.05;3.85;;;26.30;99.90;;;;;;1917412;75;21058;-85
2022/10/05 15:56:42;;;;;;;8.08;3.70;;;26.00;99.90;;;;;;1939317;73;21156;-85
2022/10/05 15:59:37;;;;;;;6.10;3.17;;;25.90;99.90;;;;;;1917544;75;21043;-86
2022/10/05 16:02:32;;;;;;;4.62;3.10;;;25.60;99.90;;;;;;1917652;75;21073;-86
2022/10/05 16:08:57;;;;;;;7.22;2.72;;;25.20;99.90;;;;;;1918119;75;21088;-85
2022/10/05 16:12:00;;;;;;;5.50;3.05;;;24.80;99.90;;;;;;1917631;75;21109;-87
2022/10/05 16:17:52;;;;;;;5.87;3.02;;;23.60;99.90;;;;;;1953864;72;22151;-88
2022/10/05 16:20:49;;;;;;;5.15;3.33;;;23.00;99.90;;;;;;1901928;75;21173;-86
2022/10/05 16:26:43;;;;;;;4.35;3.08;;;22.30;99.90;;;;;;1943038;72;22549;-87
2022/10/05 16:29:42;;;;;;;5.80;3.52;;;22.10;99.90;;;;;;1940267;73;21137;-87
2022/10/05 16:32:36;;;;;;;6.47;3.08;;;21.90;99.90;;;;;;1920540;73;21125;-85
2022/10/05 16:35:34;;;;;;;6.45;3.77;;;21.80;99.90;;;;;;1930174;73;21051;-86
2022/10/05 16:38:30;;;;;;;4.47;3.50;;;21.70;99.90;;;;;;1927297;74;21063;-86
2022/10/05 16:41:26;;;;;;;5.05;3.05;;;21.60;99.90;;;;;;1917785;75;21092;-86
2022/10/05 16:44:23;;;;;;;7.62;3.92;;;21.50;99.90;;;;;;1917667;75;21148;-86
2022/10/05 16:47:31;;;;;;;8.80;3.47;;;21.40;99.90;;;;;;1921777;73;21109;-84
2022/10/05 16:50:27;;;;;;;4.08;3.08;;;21.30;99.90;;;;;;1926045;73;21145;-85
2022/10/05 16:53:22;;;;;;;7.00;3.60;;;21.20;99.90;;;;;;1917513;75;21183;-86
2022/10/05 16:56:16;;;;;;;5.55;3.37;;;21.10;99.90;;;;;;1917594;75;21095;-85
2022/10/05 17:01:57;;;;;;;7.37;3.65;;;21.00;99.90;;;;;;1948441;72;22133;-85
2022/10/05 17:04:55;;;;;;;6.65;3.77;;;21.00;99.90;;;;;;1906967;75;21067;-85
2022/10/05 17:07:57;;;;;;;8.03;3.80;;;20.90;99.90;;;;;;1899698;75;21056;-87
2022/10/05 17:11:08;;;;;;;6.50;3.67;;;21.00;99.90;;;;;;1900205;75;21502;-85
2022/10/05 17:14:14;;;;;;;5.58;2.90;;;20.80;99.90;;;;;;1884778;76;21284;-86
2022/10/05 17:17:26;;;;;;;9.53;3.60;;;20.80;99.90;;;;;;1897619;75;21537;-85
2022/10/05 17:20:36;;;;;;;7.17;3.25;;;20.70;99.90;;;;;;1897397;75;21538;-85
2022/10/05 17:23:34;;;;;;;7.47;3.70;;;20.60;99.90;;;;;;1896241;75;21059;-85
2022/10/05 17:26:43;;;;;;;5.87;3.25;;;20.60;99.90;;;;;;1895791;75;21410;-86
2022/10/05 17:29:48;;;;;;;7.42;3.58;;;20.60;99.90;;;;;;1895783;75;21627;-85
2022/10/05 17:32:51;;;;;;;4.85;3.40;;;20.50;99.90;;;;;;1895307;75;21058;-85
2022/10/05 17:36:08;;;;;;;5.50;3.40;;;20.40;99.90;;;;;;1895352;75;21658;-86
2022/10/05 17:39:13;;;;;;;4.33;3.45;;;20.30;99.90;;;;;;1893376;75;21150;-84
2022/10/05 17:42:40;;;;;;;5.20;3.35;;;20.20;99.90;;;;;;1884801;76;21059;-86
2022/10/05 17:46:00;;;;;;;7.22;3.60;;;20.00;99.90;;;;;;1906780;75;21047;-85
2022/10/05 17:49:32;;;;;;;7.53;3.50;;;20.00;99.90;;;;;;1884734;75;21504;-86
2022/10/05 17:55:45;;;;;;;7.37;3.65;;;20.00;99.90;;;;;;1906875;75;21052;-86
2022/10/05 17:59:09;;;;;;;6.70;3.70;;;20.00;99.90;;;;;;1884749;76;21125;-85
2022/10/05 18:02:16;;;;;;;7.00;3.87;;;19.90;99.90;;;;;;1913386;74;21183;-85
2022/10/05 18:05:27;;;;;;;5.12;3.75;;;19.90;99.90;;;;;;1899503;74;21071;-87
2022/10/05 18:08:30;;;;;;;5.22;3.22;;;19.90;99.90;;;;;;1905000;74;21089;-87
2022/10/05 18:11:38;;;;;;;5.50;3.05;;;19.80;99.90;;;;;;1905115;74;21556;-86
2022/10/05 18:14:32;;;;;;;5.47;3.22;;;19.70;99.90;;;;;;1905195;74;21102;-85
2022/10/05 18:17:44;;;;;;;6.85;3.25;;;19.60;99.90;;;;;;1910593;74;21506;-85
2022/10/05 18:20:37;;;;;;;8.75;4.08;;;19.50;99.90;;;;;;1910504;74;21116;-85
2022/10/05 18:23:34;;;;;;;5.33;3.10;;;19.40;99.90;;;;;;1893739;75;21171;-86
2022/10/05 18:26:27;;;;;;;7.35;3.42;;;19.40;99.90;;;;;;1900060;74;21167;-86
2022/10/05 18:36:03;;;;;;;9.53;3.47;;;19.30;99.90;;;;;;1951060;72;22146;-87
2022/10/05 18:38:58;;;;;;;6.85;3.70;;;19.20;99.90;;;;;;1884835;76;21046;-85
2022/10/05 18:41:55;;;;;;;8.70;3.80;;;19.10;99.90;;;;;;1902493;75;21051;-86
2022/10/05 18:44:50;;;;;;;7.10;3.12;;;19.10;99.90;;;;;;1898287;75;21052;-86
2022/10/05 18:47:45;;;;;;;7.87;3.20;;;19.20;99.90;;;;;;1895240;75;21126;-86
2022/10/05 18:50:41;;;;;;;7.40;4.08;;;19.20;99.90;;;;;;1895796;75;21118;-86
2022/10/05 18:53:37;;;;;;;4.80;3.12;;;19.20;99.90;;;;;;1895940;75;21159;-85
2022/10/05 18:56:34;;;;;;;6.55;3.45;;;19.10;99.90;;;;;;1898780;75;21137;-87
2022/10/05 18:59:37;;;;;;;9.58;4.28;;;19.10;99.90;;;;;;1899518;75;21177;-86
2022/10/05 19:02:33;;;;;;;4.12;2.70;;;19.10;99.90;;;;;;1905333;75;21620;-85
2022/10/05 19:08:37;;;;;;;5.42;3.52;;;18.90;99.90;;;;;;1933765;72;22135;-85
2022/10/05 19:11:32;;;;;;;7.08;4.25;;;18.80;99.90;;;;;;1919483;74;21521;-87
2022/10/05 19:14:31;;;;;;;5.15;3.62;;;18.80;99.90;;;;;;1898353;75;21493;-85
2022/10/05 19:17:27;;;;;;;8.28;3.52;;;18.80;99.90;;;;;;1901106;75;21475;-86
2022/10/05 19:20:23;;;;;;;6.85;3.92;;;18.70;99.90;;;;;;1896635;75;21086;-86
2022/10/05 19:23:25;;;;;;;7.17;4.03;;;18.80;99.90;;;;;;1895779;75;21102;-85